| time (UTC) | temp F | wind direction | speed knots | gust knots | rain 1hr in | rain 24hr in | rain mn in | humidity % | barometer mb |
| 20260507003658 | 69 | 15 | 0.9 | 4.3 | 0.00 | 0.00 | 0.00 | 68 | 1018.3 |
| 20260507002648 | 69 | 185 | 0.9 | 6.1 | 0.00 | 0.00 | 0.00 | 67 | 1018.3 |
| 20260507001709 | 69 | 122 | 0.9 | 6.1 | 0.00 | 0.00 | 0.00 | 67 | 1018.4 |
| 20260506235505 | 70 | 145 | 0.9 | 3.5 | 0.00 | 0.00 | 0.00 | 66 | 1018.4 |
| 20260506232159 | 70 | 139 | 0.9 | 4.3 | 0.00 | 0.00 | 0.00 | 67 | 1018.6 |
| 20260506231219 | 70 | 130 | 0.9 | 4.3 | 0.00 | 0.00 | 0.00 | 67 | 1018.8 |
| 20260506230222 | 69 | 139 | 0.9 | 4.3 | 0.00 | 0.00 | 0.00 | 68 | 1018.8 |
| 20260506225226 | 69 | 146 | 0.9 | 5.2 | 0.00 | 0.00 | 0.00 | 67 | 1018.9 |
| 20260506224211 | 70 | 136 | 0.9 | 5.2 | 0.00 | 0.00 | 0.00 | 65 | 1019.1 |
| 20260506223156 | 71 | 132 | 0.9 | 5.2 | 0.00 | 0.00 | 0.00 | 64 | 1019.1 |
| 20260506222208 | 70 | 143 | 0.9 | 5.2 | 0.00 | 0.00 | 0.00 | 64 | 1019.2 |
| 20260506221154 | 70 | 158 | 0.9 | 5.2 | 0.00 | 0.00 | 0.00 | 64 | 1019.4 |
| 20260506220140 | 71 | 136 | 0.9 | 4.3 | 0.00 | 0.00 | 0.00 | 64 | 1019.6 |
| 20260506215122 | 71 | 137 | 0.9 | 4.3 | 0.00 | 0.00 | 0.00 | 63 | 1019.6 |
| 20260506214136 | 71 | 139 | 0.9 | 7.0 | 0.00 | 0.00 | 0.00 | 62 | 1019.8 |
| 20260506212027 | 71 | 142 | 0.9 | 3.5 | 0.00 | 0.00 | 0.00 | 63 | 1019.9 |
| 20260506211003 | 72 | 139 | 0.9 | 6.1 | 0.00 | 0.00 | 0.00 | 62 | 1019.8 |
| 20260506204828 | 73 | 134 | 0.9 | 5.2 | 0.00 | 0.00 | 0.00 | 61 | 1019.9 |
| 20260506203823 | 73 | 148 | 0.9 | 4.3 | 0.00 | 0.00 | 0.00 | 62 | 1019.9 |
| 20260506202756 | 73 | 119 | 0.9 | 4.3 | 0.00 | 0.00 | 0.00 | 62 | 1020.1 |
| 20260506201739 | 73 | 139 | 0.9 | 3.5 | 0.00 | 0.00 | 0.00 | 60 | 1020.2 |
| 20260506195630 | 73 | 142 | 0.9 | 4.3 | 0.00 | 0.00 | 0.00 | 62 | 1020.6 |
| 20260506194608 | 73 | 146 | 0.9 | 5.2 | 0.00 | 0.00 | 0.00 | 61 | 1020.5 |
| 20260506193554 | 72 | 167 | 1.7 | 6.1 | 0.00 | 0.00 | 0.00 | 63 | 1020.6 |
| 20260506192603 | 72 | 39 | 1.7 | 6.1 | 0.00 | 0.00 | 0.00 | 63 | 1020.8 |
| 20260506191535 | 72 | 195 | 0.0 | 4.3 | 0.00 | 0.00 | 0.00 | 61 | 1020.8 |
| 20260506185407 | 71 | 155 | 0.0 | 3.5 | 0.00 | 0.00 | 0.00 | 63 | 1020.9 |
| 20260506184428 | 71 | 240 | 0.9 | 3.5 | 0.00 | 0.00 | 0.00 | 63 | 1020.8 |
| 20260506183430 | 71 | 220 | 0.9 | 4.3 | 0.00 | 0.00 | 0.00 | 63 | 1021.1 |
| 20260506182432 | 70 | 266 | 0.0 | 4.3 | 0.00 | 0.00 | 0.00 | 63 | 1021.0 |
| 20260506181430 | 69 | 314 | 0.0 | 3.5 | 0.00 | 0.00 | 0.00 | 66 | 1021.0 |
| 20260506175251 | 66 | 174 | 0.9 | 3.5 | 0.00 | 0.00 | 0.00 | 67 | 1021.0 |
| 20260506174306 | 67 | 207 | 0.9 | 3.5 | 0.00 | 0.00 | 0.00 | 66 | 1021.0 |
| 20260506173303 | 66 | 181 | 0.9 | 5.2 | 0.00 | 0.00 | 0.00 | 69 | 1021.0 |
| 20260506171120 | 66 | 206 | 0.9 | 3.5 | 0.00 | 0.00 | 0.00 | 68 | 1021.1 |
| 20260506170138 | 65 | 200 | 0.9 | 3.5 | 0.00 | 0.00 | 0.00 | 70 | 1021.1 |
| 20260506165136 | 65 | 183 | 0.9 | 3.5 | 0.00 | 0.00 | 0.00 | 70 | 1021.1 |
| 20260506164158 | 66 | 195 | 0.0 | 3.5 | 0.00 | 0.00 | 0.00 | 69 | 1021.1 |
| 20260506163138 | 65 | 202 | 0.9 | 3.5 | 0.00 | 0.00 | 0.00 | 69 | 1021.1 |
| 20260506162143 | 65 | 195 | 0.9 | 3.5 | 0.00 | 0.00 | 0.00 | 69 | 1021.1 |
| 20260506160043 | 65 | 188 | 0.0 | 2.6 | 0.00 | 0.00 | 0.00 | 68 | 1021.1 |
| 20260506155042 | 66 | 176 | 0.0 | 0.9 | 0.00 | 0.00 | 0.00 | 67 | 1021.0 |
| 20260506154036 | 65 | 160 | 0.0 | 0.0 | 0.00 | 0.00 | 0.00 | 68 | 1021.1 |
| 20260506153023 | 66 | 159 | 0.0 | 0.0 | 0.00 | 0.00 | 0.00 | 66 | 1021.0 |
| 20260506151954 | 65 | 153 | 0.0 | 0.0 | 0.00 | 0.00 | 0.00 | 68 | 1021.1 |
| 20260506151008 | 65 | 190 | 0.0 | 0.9 | 0.00 | 0.00 | 0.00 | 68 | 1021.0 |
| 20260506145938 | 64 | 170 | 0.0 | 0.0 | 0.00 | 0.00 | 0.00 | 72 | 1021.0 |
| 20260506144945 | 65 | 170 | 0.0 | 0.0 | 0.00 | 0.00 | 0.00 | 70 | 1020.9 |
| 20260506142907 | 63 | 174 | 0.0 | 0.0 | 0.00 | 0.00 | 0.00 | 75 | 1020.8 |
| 20260506140749 | 58 | 161 | 0.0 | 0.0 | 0.00 | 0.00 | 0.00 | 91 | 1020.7 |
| 20260506135810 | 56 | 161 | 0.0 | 0.0 | 0.00 | 0.00 | 0.00 | 92 | 1020.6 |
| 20260506134805 | 54 | 161 | 0.0 | 0.0 | 0.00 | 0.00 | 0.00 | 92 | 1020.4 |
| 20260506133820 | 53 | 161 | 0.0 | 0.0 | 0.00 | 0.00 | 0.00 | 92 | 1020.5 |
| 20260506132757 | 53 | 161 | 0.0 | 0.0 | 0.00 | 0.00 | 0.00 | 92 | 1020.4 |
| 20260506131822 | 53 | 161 | 0.0 | 0.0 | 0.00 | 0.00 | 0.00 | 92 | 1020.4 |
| 20260506130838 | 53 | 161 | 0.0 | 0.0 | 0.00 | 0.00 | 0.00 | 92 | 1020.4 |
| 20260506124638 | 53 | 161 | 0.0 | 0.0 | 0.00 | 0.00 | 0.00 | 93 | 1020.2 |
| 20260506123655 | 53 | 161 | 0.0 | 0.0 | 0.00 | 0.00 | 0.00 | 93 | 1020.2 |
| 20260506122700 | 53 | 161 | 0.0 | 0.0 | 0.00 | 0.00 | 0.00 | 93 | 1020.2 |
| 20260506121720 | 53 | 161 | 0.0 | 0.0 | 0.00 | 0.00 | 0.00 | 93 | 1020.1 |
| 20260506120713 | 53 | 161 | 0.0 | 0.0 | 0.00 | 0.00 | 0.00 | 93 | 1020.1 |
| 20260506114551 | 53 | 161 | 0.0 | 0.0 | 0.00 | 0.00 | 0.00 | 93 | 1020.0 |
| 20260506113536 | 53 | 161 | 0.0 | 0.0 | 0.00 | 0.00 | 0.00 | 93 | 1019.9 |
| 20260506112528 | 53 | 161 | 0.0 | 0.0 | 0.00 | 0.00 | 0.00 | 93 | 1019.9 |
| 20260506111527 | 53 | 161 | 0.0 | 0.0 | 0.00 | 0.00 | 0.00 | 93 | 1019.8 |
| 20260506105404 | 53 | 161 | 0.0 | 0.0 | 0.00 | 0.00 | 0.00 | 93 | 1019.6 |
| 20260506104335 | 53 | 161 | 0.0 | 0.0 | 0.00 | 0.00 | 0.00 | 93 | 1019.6 |
| 20260506102215 | 52 | 161 | 0.0 | 0.0 | 0.00 | 0.00 | 0.00 | 93 | 1019.5 |
| 20260506101233 | 52 | 161 | 0.0 | 0.0 | 0.00 | 0.00 | 0.00 | 93 | 1019.4 |
| 20260506100201 | 52 | 161 | 0.0 | 0.0 | 0.00 | 0.00 | 0.00 | 93 | 1019.3 |
| 20260506095138 | 52 | 161 | 0.0 | 0.0 | 0.00 | 0.00 | 0.00 | 93 | 1019.4 |
| 20260506093026 | 52 | 161 | 0.0 | 0.0 | 0.00 | 0.00 | 0.00 | 93 | 1019.6 |
| 20260506090925 | 51 | 161 | 0.0 | 0.0 | 0.00 | 0.00 | 0.00 | 93 | 1019.4 |
| 20260506085936 | 51 | 161 | 0.0 | 0.0 | 0.00 | 0.00 | 0.00 | 93 | 1019.3 |
| 20260506084946 | 51 | 161 | 0.0 | 0.0 | 0.00 | 0.00 | 0.00 | 93 | 1019.4 |
| 20260506083951 | 51 | 161 | 0.0 | 0.0 | 0.00 | 0.00 | 0.00 | 93 | 1019.5 |
| 20260506082943 | 51 | 161 | 0.0 | 0.0 | 0.00 | 0.00 | 0.00 | 93 | 1019.5 |
| 20260506081932 | 50 | 161 | 0.0 | 0.0 | 0.00 | 0.02 | 0.00 | 92 | 1019.6 |
| 20260506072853 | 49 | 161 | 0.0 | 0.0 | 0.00 | 0.08 | 0.00 | 92 | 1019.1 |
| 20260506071836 | 49 | 161 | 0.0 | 0.0 | 0.00 | 0.09 | 0.00 | 92 | 1019.2 |
| 20260506070854 | 49 | 161 | 0.0 | 0.0 | 0.00 | 0.09 | 0.00 | 92 | 1019.1 |
| 20260506061848 | 49 | 161 | 0.0 | 0.0 | 0.00 | 0.09 | 0.09 | 91 | 1018.8 |
| 20260506060834 | 49 | 161 | 0.0 | 0.0 | 0.00 | 0.09 | 0.09 | 91 | 1018.6 |
| 20260506044332 | 51 | 161 | 0.0 | 0.0 | 0.00 | 0.16 | 0.09 | 89 | 1018.3 |
| 20260506043340 | 52 | 161 | 0.0 | 0.0 | 0.00 | 0.18 | 0.09 | 88 | 1018.1 |
| 20260506042313 | 52 | 161 | 0.0 | 0.0 | 0.00 | 0.20 | 0.09 | 87 | 1018.0 |
| 20260506040147 | 53 | 161 | 0.0 | 0.0 | 0.00 | 0.21 | 0.09 | 86 | 1017.6 |
| 20260506035136 | 54 | 161 | 0.0 | 0.0 | 0.00 | 0.21 | 0.09 | 85 | 1017.4 |
| 20260506034128 | 55 | 161 | 0.0 | 0.0 | 0.00 | 0.21 | 0.09 | 85 | 1017.2 |
| 20260506033141 | 55 | 144 | 0.0 | 0.0 | 0.00 | 0.22 | 0.09 | 84 | 1017.1 |
| 20260506031008 | 56 | 138 | 0.0 | 0.9 | 0.00 | 0.23 | 0.09 | 82 | 1016.7 |
| 20260506030021 | 57 | 176 | 0.0 | 2.6 | 0.00 | 0.23 | 0.09 | 81 | 1016.7 |
| 20260506024954 | 57 | 165 | 0.0 | 0.9 | 0.00 | 0.23 | 0.09 | 80 | 1016.6 |
| 20260506022830 | 59 | 148 | 0.0 | 5.2 | 0.00 | 0.23 | 0.09 | 79 | 1016.6 |
| 20260506021758 | 59 | 136 | 0.0 | 5.2 | 0.00 | 0.23 | 0.09 | 78 | 1016.5 |
| 20260506020736 | 60 | 142 | 0.0 | 5.2 | 0.00 | 0.23 | 0.09 | 77 | 1016.3 |
| 20260506015703 | 62 | 155 | 0.0 | 5.2 | 0.00 | 0.23 | 0.09 | 75 | 1016.2 |
| 20260506014727 | 62 | 144 | 0.0 | 5.2 | 0.00 | 0.23 | 0.09 | 75 | 1016.1 |
| 20260506013716 | 62 | 142 | 0.0 | 5.2 | 0.00 | 0.23 | 0.09 | 76 | 1016.2 |
| 20260506012642 | 62 | 167 | 0.0 | 4.3 | 0.00 | 0.23 | 0.09 | 75 | 1016.1 |
| 20260506011633 | 62 | 158 | 0.9 | 4.3 | 0.00 | 0.23 | 0.09 | 75 | 1016.2 |
| 20260506010623 | 63 | 26 | 0.9 | 3.5 | 0.00 | 0.23 | 0.09 | 74 | 1016.1 |
| 20260506005645 | 62 | 145 | 0.0 | 5.2 | 0.00 | 0.23 | 0.09 | 75 | 1016.0 |
| 20260506004700 | 62 | 141 | 0.9 | 5.2 | 0.00 | 0.23 | 0.09 | 75 | 1016.0 |